Flight Track Log - Related Links

Times and Time Zones

All times are in EDT time to prevent confusion due to time zone crossing. See the SWA2058 flight status page for this flight to view local times or setup timezone preferences in your user account.

Time Position Orientation Groundspeed Altitude Reporting Facility
EDT Latitude Longitude Course Direction KTS MPH feet Rate Location/Type
Sat 11:58:27 AM 32.7394 -117.3175 273° West 224 258 4,600  Level Los Angeles Center
Sat 11:59:29 AM 32.6769 -117.2956 164° South 266 306 7,200 2,565 Climbing Los Angeles Center
Sat 12:00:31 PM 32.6447 -117.2086 114° Southeast 293 337 9,900 2,613 Climbing Los Angeles Center
Sat 12:01:33 PM 32.6289 -117.0986 100° East 333 383 12,600 2,710 Climbing Los Angeles Center
Sat 12:02:35 PM 32.6114 -116.9778 100° East 363 418 15,500 2,732 Climbing Los Angeles Center
Sat 12:03:36 PM 32.6228 -116.8508 84° East 388 447 18,200 2,780 Climbing Los Angeles Center
Sat 12:04:38 PM 32.6392 -116.6886 83° East 417 480 21,200 2,613 Climbing Los Angeles Center
Sat 12:05:40 PM 32.6522 -116.5506 84° East 427 491 23,600 2,177 Climbing Los Angeles Center
Sat 12:06:42 PM 32.6656 -116.4089 84° East 440 506 25,700 1,887 Climbing Los Angeles Center
Sat 12:07:44 PM 32.6794 -116.2628 84° East 459 528 27,500 1,707 Climbing Los Angeles Center
Sat 12:08:45 PM 32.6931 -116.1114 84° East 469 540 29,200 1,707 Climbing Los Angeles Center
Sat 12:09:47 PM 32.7064 -115.9239 85° East 484 557 31,000 1,694 Climbing Los Angeles Center
Sat 12:10:49 PM 32.7139 -115.7633 87° East 490 564 32,700 1,548 Climbing Los Angeles Center
Sat 12:11:51 PM 32.7225 -115.6039 86° East 488 562 34,200 1,561 Climbing Los Angeles Center
Sat 12:12:52 PM 32.7314 -115.4450 86° East 485 558 35,900 1,463 Climbing Los Angeles Center
Sat 12:13:54 PM 32.7378 -115.2875 87° East 480 552 37,200 1,210 Climbing Los Angeles Center
Sat 12:14:56 PM 32.7464 -115.1303 86° East 478 550 38,400 871 Climbing Los Angeles Center
Sat 12:15:58 PM 32.7558 -114.9428 87° East 475 547 39,000 293 Climbing Los Angeles Center
Sat 12:16:59 PM 32.7625 -114.7875 87° East 474 545 39,000  Level Los Angeles Center
Sat 12:18:01 PM 32.7675 -114.6319 88° East 473 544 39,000  Level Los Angeles Center
Sat 12:19:03 PM 32.7719 -114.4756 88° East 473 544 39,000  Level Los Angeles Center
Sat 12:20:05 PM 32.7731 -114.3206 89° East 470 541 39,000  Level Los Angeles Center
Sat 12:21:07 PM 32.7747 -114.1647 89° East 471 542 39,000  Level Los Angeles Center
Sat 12:21:34 PM 32.7750 -114.0731 90° East 472 543 39,000  Level Albuquerque Center
Sat 12:22:36 PM 32.7822 -113.9197 87° East 468 539 39,000  Level Albuquerque Center
Sat 12:23:37 PM 32.8075 -113.7692 79° East 463 533 39,000  Level Albuquerque Center
Sat 12:24:39 PM 32.8275 -113.6169 81° East 465 535 39,000  Level Albuquerque Center
Sat 12:25:41 PM 32.8489 -113.4644 80° East 466 536 39,000  Level Albuquerque Center
Sat 12:26:43 PM 32.8703 -113.3117 80° East 466 536 39,000  Level Albuquerque Center
Sat 12:27:45 PM 32.8911 -113.1594 81° East 464 534 39,000  Level Albuquerque Center
Sat 12:28:47 PM 32.9164 -112.9775 81° East 462 532 39,000  Level Albuquerque Center
Sat 12:29:49 PM 32.9353 -112.8244 82° East 463 533 39,000  Level Albuquerque Center
Sat 12:30:51 PM 32.9547 -112.6722 81° East 462 532 39,000  Level Albuquerque Center
Sat 12:31:53 PM 32.9419 -112.5136 95° East 479 551 39,000  Level Albuquerque Center
Sat 12:32:54 PM 32.9261 -112.3558 97° East 479 551 39,000  Level Albuquerque Center
Sat 12:33:56 PM 32.9100 -112.2019 97° East 480 552 39,000  Level Albuquerque Center
Sat 12:34:58 PM 32.8953 -112.0456 96° East 480 552 39,000  Level Albuquerque Center
Sat 12:36:00 PM 32.8753 -111.8592 97° East 477 549 39,000  Level Albuquerque Center
Sat 12:37:02 PM 32.8594 -111.7036 97° East 477 549 39,000  Level Albuquerque Center
Sat 12:38:04 PM 32.8431 -111.5506 97° East 472 543 39,000  Level Albuquerque Center
Sat 12:39:06 PM 32.8261 -111.3967 97° East 472 543 39,000  Level Albuquerque Center
Sat 12:40:08 PM 32.8103 -111.2436 97° East 469 540 39,000  Level Albuquerque Center
Sat 12:41:10 PM 32.7892 -111.0583 98° East 474 545 39,000  Level Albuquerque Center
Sat 12:42:12 PM 32.7725 -110.9058 97° East 471 542 39,000  Level Albuquerque Center
Sat 12:43:14 PM 32.7544 -110.7519 98° East 471 542 39,000  Level Albuquerque Center
Sat 12:44:15 PM 32.7347 -110.5819 98° East 472 543 39,000  Level Albuquerque Center
Sat 12:45:17 PM 32.7172 -110.4283 98° East 474 545 39,000  Level Albuquerque Center
Sat 12:46:19 PM 32.6992 -110.2744 98° East 475 547 39,000  Level Albuquerque Center
Sat 12:47:21 PM 32.6811 -110.1203 98° East 478 550 39,000  Level Albuquerque Center
Sat 12:48:23 PM 32.6628 -109.9642 98° East 480 552 39,000  Level Albuquerque Center
Sat 12:49:25 PM 32.6389 -109.7761 99° East 485 558 39,000  Level Albuquerque Center
Sat 12:50:27 PM 32.6186 -109.6172 99° East 492 566 39,000  Level Albuquerque Center
Sat 12:51:29 PM 32.5989 -109.4586 98° East 493 567 39,000  Level Albuquerque Center
Sat 12:52:31 PM 32.5783 -109.3000 99° East 494 568 39,000  Level Albuquerque Center
Sat 12:53:32 PM 32.5589 -109.1417 98° East 494 568 39,000  Level Albuquerque Center
Sat 12:54:34 PM 32.5344 -108.9533 99° East 492 566 39,000  Level Albuquerque Center
Sat 12:55:36 PM 32.5142 -108.7953 99° East 493 567 39,000  Level Albuquerque Center
Sat 12:56:38 PM 32.4933 -108.6347 99° East 499 574 39,000  Level Albuquerque Center
Sat 12:57:40 PM 32.4725 -108.4756 99° East 497 572 39,000  Level Albuquerque Center
Sat 12:58:42 PM 32.4469 -108.2842 99° East 498 573 39,000  Level Albuquerque Center
Sat 12:59:44 PM 32.4269 -108.1308 99° East 494 568 39,000  Level Albuquerque Center
Sat 01:00:46 PM 32.4044 -107.9703 99° East 496 571 39,000  Level Albuquerque Center
Sat 01:01:48 PM 32.3822 -107.8106 99° East 495 570 39,000  Level Albuquerque Center
Sat 01:02:50 PM 32.3611 -107.6514 99° East 495 570 39,000  Level Albuquerque Center
Sat 01:03:52 PM 32.3339 -107.4608 100° East 491 565 39,000  Level Albuquerque Center
Sat 01:04:53 PM 32.3119 -107.3050 99° East 488 562 39,000  Level Albuquerque Center
Sat 01:05:55 PM 32.2906 -107.1342 98° East 485 558 39,000  Level Albuquerque Center
Sat 01:06:57 PM 32.2675 -106.9772 100° East 485 558 39,000  Level Albuquerque Center
Sat 01:07:59 PM 32.2425 -106.8139 100° East 483 556 39,000  Level Albuquerque Center
Sat 01:09:01 PM 32.2197 -106.6597 100° East 481 554 39,000  Level Albuquerque Center
Sat 01:10:03 PM 32.1964 -106.5047 100° East 482 555 39,000  Level Albuquerque Center
Sat 01:11:05 PM 32.1739 -106.3500 100° East 481 554 39,000  Level Albuquerque Center
Sat 01:12:07 PM 32.1500 -106.1958 100° East 480 552 39,000  Level Albuquerque Center
Sat 01:13:09 PM 32.1261 -106.0425 100° East 477 549 39,000  Level Albuquerque Center
Sat 01:14:11 PM 32.0981 -105.8667 101° East 478 550 39,000  Level Albuquerque Center
Sat 01:15:13 PM 32.0747 -105.7133 100° East 476 548 39,000  Level Albuquerque Center
Sat 01:16:15 PM 32.0500 -105.5594 101° East 478 550 39,000  Level Albuquerque Center
Sat 01:17:17 PM 32.0269 -105.4047 100° East 479 551 39,000  Level Albuquerque Center
Sat 01:18:19 PM 31.9969 -105.2181 101° East 477 549 39,000  Level Albuquerque Center
Sat 01:19:21 PM 31.9733 -105.0658 100° East 477 549 39,000  Level Albuquerque Center
Sat 01:20:23 PM 31.9483 -104.9100 101° East 480 552 39,000  Level Albuquerque Center
Sat 01:21:25 PM 31.9222 -104.7550 101° East 481 554 39,000  Level Albuquerque Center
Sat 01:22:27 PM 31.8975 -104.5992 101° East 483 556 39,000  Level Albuquerque Center
Sat 01:23:29 PM 31.8722 -104.4433 101° East 483 556 39,000  Level Albuquerque Center
Sat 01:24:31 PM 31.8456 -104.2867 101° East 485 558 39,000  Level Albuquerque Center
Sat 01:25:33 PM 31.8136 -104.0981 101° East 487 560 39,000  Level Albuquerque Center
Sat 01:26:35 PM 31.7886 -103.9422 101° East 487 560 39,000  Level Albuquerque Center
Sat 01:27:37 PM 31.7614 -103.7847 101° East 490 564 39,000  Level Albuquerque Center
Sat 01:28:39 PM 31.7317 -103.6183 102° East 493 567 39,000  Level Albuquerque Center
Sat 01:29:41 PM 31.7058 -103.4631 101° East 490 564 39,000  Level Albuquerque Center
Sat 01:30:43 PM 31.6797 -103.3147 102° East 494 568 39,000  Level Albuquerque Center
Sat 01:31:45 PM 31.6456 -103.1267 102° East 492 566 39,000  Level Albuquerque Center
Sat 01:32:47 PM 31.6175 -102.9697 102° East 492 566 39,000  Level Albuquerque Center
Sat 01:33:49 PM 31.5892 -102.8131 102° East 490 564 39,000  Level Albuquerque Center
Sat 01:34:51 PM 31.5597 -102.6544 102° East 493 567 39,000  Level Albuquerque Center
Sat 01:35:53 PM 31.5303 -102.4906 102° East 499 574 39,000  Level Albuquerque Center
Sat 01:36:55 PM 31.5006 -102.3303 102° East 506 582 39,000  Level Albuquerque Center
Sat 01:37:57 PM 31.4725 -102.1733 102° East 501 577 39,000  Level Albuquerque Center
Sat 01:38:59 PM 31.4369 -101.9861 103° East 497 572 39,000  Level Albuquerque Center
Sat 01:40:01 PM 31.4075 -101.8217 102° East 493 567 39,000  Level Albuquerque Center
Sat 01:41:58 PM 31.3539 -101.5419 103° East 490 564 39,000  Level Houston Center
Sat 01:43:00 PM 31.3233 -101.3878 103° East 487 560 39,000  Level Houston Center
Sat 01:44:02 PM 31.2878 -101.2022 103° East 488 562 39,000  Level Houston Center
Sat 01:45:04 PM 31.2572 -101.0433 103° East 490 564 39,000  Level Houston Center
Sat 01:46:06 PM 31.2278 -100.8903 103° East 488 562 39,000  Level Houston Center
Sat 01:47:08 PM 31.1981 -100.7356 103° East 486 559 39,000  Level Houston Center
Sat 01:48:10 PM 31.1669 -100.5817 103° East 487 560 39,000  Level Houston Center
Sat 01:49:12 PM 31.1364 -100.4294 103° East 482 555 39,000  Level Houston Center
Sat 01:50:14 PM 31.1056 -100.2786 103° East 477 549 39,000  Level Houston Center
Sat 01:51:16 PM 31.0764 -100.1292 103° East 474 545 39,000  Level Houston Center
Sat 01:52:18 PM 31.0389 -99.9483 104° East 477 549 39,000  Level Houston Center
Sat 01:53:20 PM 31.0092 -99.7978 103° East 474 545 39,000  Level Houston Center
Sat 01:54:22 PM 30.9778 -99.6486 104° East 473 544 39,000  Level Houston Center
Sat 01:55:24 PM 30.9475 -99.4994 103° East 473 544 39,000  Level Houston Center
Sat 01:56:26 PM 30.9142 -99.3464 104° East 483 556 39,000  Level Houston Center
Sat 01:57:28 PM 30.8839 -99.1969 103° East 477 549 39,000  Level Houston Center
Sat 01:58:30 PM 30.8478 -99.0292 104° East 478 550 39,000  Level Houston Center
Sat 01:59:32 PM 30.8153 -98.8775 104° East 479 551 39,000  Level Houston Center
Sat 02:00:34 PM 30.7881 -98.7236 102° East 482 555 39,000  Level Houston Center
Sat 02:01:37 PM 30.7758 -98.5669 95° East 483 556 39,000  Level Houston Center
Sat 02:02:38 PM 30.7583 -98.3833 96° East 485 558 39,000  Level Houston Center
Sat 02:03:40 PM 30.7433 -98.2250 96° East 488 562 39,000 -480 Level Houston Center
Sat 02:04:43 PM 30.7281 -98.0683 96° East 487 560 38,000 -960 Descending Houston Center
Sat 02:05:45 PM 30.7125 -97.9144 97° East 479 551 37,000 -1,161 Descending Houston Center
Sat 02:06:47 PM 30.6969 -97.7600 97° East 480 552 35,600 -1,258 Descending Houston Center
Sat 02:07:49 PM 30.6808 -97.6081 97° East 474 545 34,400 -1,984 Descending Houston Center
Sat 02:08:51 PM 30.6642 -97.4353 96° East 463 533 31,500 -2,661 Descending Houston Center
Sat 02:09:53 PM 30.6497 -97.2883 96° East 460 529 28,900 -2,274 Descending Houston Center
Sat 02:10:55 PM 30.6336 -97.1444 97° East 453 521 26,800 -1,887 Descending Houston Center
Sat 02:11:57 PM 30.6197 -97.0069 97° East 434 499 25,000 -1,839 Descending Houston Center
Sat 02:12:59 PM 30.5744 -96.8881 114° Southeast 401 461 23,000 -2,129 Descending Houston Center
Sat 02:14:01 PM 30.5050 -96.7556 121° Southeast 410 472 20,600 -2,016 Descending Houston Center
Sat 02:15:04 PM 30.4472 -96.6506 123° Southeast 390 449 18,800 -1,680 Descending Houston Center
Sat 02:16:06 PM 30.3917 -96.5483 122° Southeast 375 432 17,100 -1,694 Descending Houston Center
Sat 02:17:08 PM 30.3381 -96.4478 122° Southeast 366 421 15,300 -1,868 Descending Houston Center
Sat 02:17:52 PM 30.2950 -96.3697 123° Southeast 354 407 13,800 -1,742 Descending Houston Center
Sat 02:18:10 PM 30.2844 -96.3511 123° Southeast 356 410 13,500 -1,701 Descending Houston Center
Sat 02:18:59 PM 30.2381 -96.2650 122° Southeast 342 394 11,900 -1,429 Descending Houston Center
Sat 02:19:55 PM 30.1817 -96.1939 133° Southeast 328 377 11,000 -720 Descending Houston Center
Sat 02:20:14 PM 30.1681 -96.1856 152° Southeast 333 383 11,000  Level Houston Center
Sat 02:20:57 PM 30.0939 -96.1483 157° South 333 383 11,000 -97 Level Houston Center
Sat 02:21:16 PM 30.0733 -96.1356 152° Southeast 334 384 10,900  Descending Houston Center
Sat 02:22:03 PM 30.0014 -96.0983 156° South 334 384 11,000  Climbing Houston Center
Sat 02:22:18 PM 29.9900 -96.0911 151° Southeast 330 380 10,900  Descending Houston Center
Sat 02:22:59 PM 29.9222 -96.0569 156° South 334 384 11,000  Climbing Houston Center
Sat 02:23:20 PM 29.9050 -96.0458 151° Southeast 334 384 10,900  Descending Houston Center
Sat 02:24:01 PM 29.8342 -96.0092 156° South 334 384 11,000 95 Climbing Houston Center
Sat 02:24:23 PM 29.8161 -95.9994 155° Southeast 340 391 11,000  Level Houston Center
Sat 02:24:57 PM 29.7589 -95.9647 152° Southeast 336 387 11,000  Level Houston Center
Sat 02:25:25 PM 29.7369 -95.9469 145° Southeast 334 384 11,000  Level Houston Center
Sat 02:26:04 PM 29.6769 -95.8900 140° Southeast 335 386 11,000 -97 Level Houston Center
Sat 02:26:27 PM 29.6492 -95.8667 144° Southeast 336 387 10,900 -581 Descending Houston Center
Sat 02:27:06 PM 29.6019 -95.8242 142° Southeast 324 373 10,400 -871 Descending Houston Center
Sat 02:27:29 PM 29.5786 -95.8050 144° Southeast 324 373 10,000 -1,279 Descending Houston Center
Sat 02:28:07 PM 29.5572 -95.7478 113° Southeast 300 345 9,100 -1,355 Descending Houston Center
Sat 02:28:31 PM 29.5622 -95.7181 79° East 309 356 8,600 -1,672 Descending Houston Center
Sat 02:29:08 PM 29.5761 -95.6517 76° East 307 353 7,400 -1,548 Descending Houston Center
Sat 02:29:33 PM 29.5839 -95.6236 72° East 306 352 7,000 -1,065 Descending Houston Center
Sat 02:30:10 PM 29.5969 -95.5581 77° East 294 338 6,300 -968 Descending Houston Center
Sat 02:30:35 PM 29.6017 -95.5328 78° East 300 345 6,000 -295 Descending Houston Center
Sat 02:31:11 PM 29.6161 -95.4669 76° East 283 326 6,000  Level Houston Center
Sat 02:31:37 PM 29.6200 -95.4447 79° East 287 330 6,000  Level Houston Center
Sat 02:32:18 PM 29.6322 -95.3689 79° East 279 321 6,000  Level Houston Center
Sat 02:32:39 PM 29.6325 -95.3408 89° East 274 315 6,000  Level Houston Center
Sat 02:33:20 PM 29.6308 -95.2847 92° East 237 273 6,000  Level Houston Center
Sat 02:33:41 PM 29.6322 -95.2625 86° East 246 283 6,000 -643 Level Houston Center
Sat 02:34:16 PM 29.6328 -95.2150 89° East 241 277 5,400 -1,238 Descending Houston Center
Sat 02:34:44 PM 29.6361 -95.1853 83° East 238 274 4,700 -1,377 Descending Houston Center
Sat 02:35:17 PM 29.6653 -95.1581 39° Northeast 209 241 4,000 -1,161 Descending Houston Center
Sat 02:35:46 PM 29.6844 -95.1389 41° Northeast 224 258 3,500 -1,433 Descending Houston Center
Sat 02:36:24 PM 29.7122 -95.1428 353° North 180 207 2,400 -1,355 Descending Houston Center
Sat 02:36:48 PM 29.7150 -95.1553 284° West 198 228 2,100 -484 Descending Houston Center
Sat 02:37:26 PM 29.7064 -95.1939 256° West 169 194 1,900 -484 Descending Houston Center
Sat 02:37:50 PM 29.7044 -95.2067 260° West 178 205 1,600 -984 Descending Houston Center
Sat 02:38:27 PM 29.6869 -95.2347 234° Southwest 130 150 900 -968 Descending Houston Center
Sat 02:38:52 PM 29.6761 -95.2461 222° Southwest 148 170 600 -677 Descending Houston Center
Sat 02:39:29 PM 29.6583 -95.2647 222° Southwest 134 154 200 29,419 Descending Houston Center
Sat 02:39:54 PM 29.6461 -95.2769 221° Southwest 139 160 31,000 73,920 Climbing Houston Center

Login

Don't have an account? Register now (free) for customized features, flight alerts, and more!